THY75 LTFM-EDDH
Flight info
| Callsign | THY75 |
|---|---|
| Flight time | 2h 35m |
| Altitude | 32000 |
| Route | IBLAX P727 BGS L622 GONGO DCT KOMAN DCT NARKA DCT PITOK DCT MAKAL DCT ETUDA DCT HDO DCT SOGMA M748 RARUP RARUP3D |
| Aircraft | A21N/M-SDE2E3FGHIRWXY/LB1 |
Departure
| Time | 2026-02-17 10:26 |
|---|---|
| Airport | İstanbul Airport (LTFM) |
Arrival
| Time | 2026-02-17 13:01 |
|---|---|
| Airport | Hamburg Helmut Schmidt Airport (EDDH) |
| Time | Latitude | Longitude | Altitude | Speed | Heading |
|---|---|---|---|---|---|
| 2026-02-17 09:44 | 41.26164 | 28.73615 | 337 ft | 0 kts | 107° |
| 2026-02-17 10:16 | 41.26167 | 28.73600 | 335 ft | 3 kts | 103° |
| 2026-02-17 10:16 | 41.26171 | 28.73574 | 335 ft | 3 kts | 94° |
| 2026-02-17 10:17 | 41.26170 | 28.73548 | 336 ft | 3 kts | 76° |
| 2026-02-17 10:17 | 41.26163 | 28.73526 | 334 ft | 3 kts | 42° |
| 2026-02-17 10:17 | 41.26151 | 28.73517 | 334 ft | 1 kts | 5° |
| 2026-02-17 10:17 | 41.26146 | 28.73517 | 335 ft | 0 kts | 5° |
| 2026-02-17 10:20 | 41.26151 | 28.73517 | 334 ft | 3 kts | 5° |
| 2026-02-17 10:20 | 41.26186 | 28.73518 | 339 ft | 7 kts | 354° |
| 2026-02-17 10:20 | 41.26219 | 28.73476 | 336 ft | 8 kts | 270° |
| 2026-02-17 10:21 | 41.26219 | 28.73393 | 337 ft | 10 kts | 270° |
| 2026-02-17 10:21 | 41.26220 | 28.73316 | 336 ft | 9 kts | 270° |
| 2026-02-17 10:21 | 41.26219 | 28.73228 | 339 ft | 10 kts | 269° |
| 2026-02-17 10:21 | 41.26217 | 28.73126 | 337 ft | 12 kts | 269° |
| 2026-02-17 10:22 | 41.26216 | 28.73015 | 339 ft | 9 kts | 269° |
| 2026-02-17 10:22 | 41.26215 | 28.72974 | 339 ft | 0 kts | 269° |
| 2026-02-17 10:23 | 41.26215 | 28.72968 | 339 ft | 2 kts | 269° |
| 2026-02-17 10:23 | 41.26214 | 28.72935 | 339 ft | 5 kts | 269° |
| 2026-02-17 10:23 | 41.26214 | 28.72878 | 339 ft | 7 kts | 269° |
| 2026-02-17 10:24 | 41.26213 | 28.72812 | 339 ft | 8 kts | 269° |
| 2026-02-17 10:24 | 41.26258 | 28.72779 | 336 ft | 10 kts | 1° |
| 2026-02-17 10:24 | 41.26285 | 28.72777 | 337 ft | 0 kts | 359° |
| 2026-02-17 10:25 | 41.26349 | 28.72775 | 337 ft | 36 kts | 359° |
| 2026-02-17 10:25 | 41.26845 | 28.72764 | 338 ft | 106 kts | 359° |
| 2026-02-17 10:25 | 41.27796 | 28.72742 | 339 ft | 164 kts | 360° |
| 2026-02-17 10:25 | 41.29033 | 28.72736 | 579 ft | 184 kts | 0° |
| 2026-02-17 10:26 | 41.30329 | 28.72624 | 1098 ft | 193 kts | 352° |
| 2026-02-17 10:26 | 41.31705 | 28.72526 | 1569 ft | 205 kts | 356° |
| 2026-02-17 10:26 | 41.33186 | 28.72501 | 1988 ft | 219 kts | 358° |
| 2026-02-17 10:27 | 41.36450 | 28.72508 | 2688 ft | 255 kts | 357° |
| 2026-02-17 10:27 | 41.38248 | 28.72389 | 3110 ft | 268 kts | 343° |
| 2026-02-17 10:27 | 41.40014 | 28.71518 | 3697 ft | 277 kts | 328° |
| 2026-02-17 10:27 | 41.41764 | 28.70346 | 4441 ft | 283 kts | 328° |
| 2026-02-17 10:28 | 41.43528 | 28.69178 | 5262 ft | 283 kts | 328° |
| 2026-02-17 10:28 | 41.45301 | 28.68012 | 6043 ft | 285 kts | 328° |
| 2026-02-17 10:28 | 41.47094 | 28.66841 | 6744 ft | 288 kts | 329° |
| 2026-02-17 10:28 | 41.48912 | 28.65681 | 7458 ft | 291 kts | 329° |
| 2026-02-17 10:29 | 41.50747 | 28.64518 | 8175 ft | 293 kts | 329° |
| 2026-02-17 10:29 | 41.52597 | 28.63339 | 8894 ft | 296 kts | 329° |
| 2026-02-17 10:29 | 41.53855 | 28.62534 | 9378 ft | 298 kts | 329° |
| 2026-02-17 10:29 | 41.55666 | 28.61377 | 9872 ft | 306 kts | 329° |
| 2026-02-17 10:30 | 41.57565 | 28.59962 | 10169 ft | 318 kts | 317° |
| 2026-02-17 10:30 | 41.59183 | 28.57898 | 10425 ft | 329 kts | 307° |
| 2026-02-17 10:30 | 41.60726 | 28.55597 | 10679 ft | 344 kts | 307° |
| 2026-02-17 10:31 | 41.63710 | 28.51142 | 11492 ft | 360 kts | 307° |
| 2026-02-17 10:31 | 41.65437 | 28.48578 | 12154 ft | 363 kts | 307° |
| 2026-02-17 10:31 | 41.67297 | 28.46236 | 12770 ft | 373 kts | 320° |
| 2026-02-17 10:31 | 41.69604 | 28.44557 | 13399 ft | 382 kts | 332° |
| 2026-02-17 10:32 | 41.72082 | 28.43192 | 13983 ft | 386 kts | 334° |
| 2026-02-17 10:32 | 41.74582 | 28.41849 | 14560 ft | 389 kts | 334° |
| 2026-02-17 10:32 | 41.77095 | 28.40483 | 15151 ft | 391 kts | 334° |
| 2026-02-17 10:32 | 41.79611 | 28.39089 | 15747 ft | 393 kts | 334° |
| 2026-02-17 10:33 | 41.82142 | 28.37679 | 16338 ft | 395 kts | 334° |
| 2026-02-17 10:33 | 41.84683 | 28.36258 | 16906 ft | 397 kts | 334° |
| 2026-02-17 10:33 | 41.87246 | 28.34818 | 17468 ft | 400 kts | 333° |
| 2026-02-17 10:33 | 41.89818 | 28.33362 | 18000 ft | 403 kts | 333° |
| 2026-02-17 10:34 | 41.92414 | 28.31897 | 18464 ft | 406 kts | 334° |
| 2026-02-17 10:34 | 41.95023 | 28.30423 | 18930 ft | 408 kts | 333° |
| 2026-02-17 10:34 | 41.97503 | 28.28584 | 19366 ft | 406 kts | 320° |
| 2026-02-17 10:35 | 42.01216 | 28.23020 | 20187 ft | 401 kts | 300° |
| 2026-02-17 10:35 | 42.02762 | 28.19884 | 20567 ft | 403 kts | 299° |
| 2026-02-17 10:35 | 42.04308 | 28.16727 | 20932 ft | 406 kts | 300° |
| 2026-02-17 10:35 | 42.05887 | 28.13561 | 21273 ft | 409 kts | 300° |
| 2026-02-17 10:36 | 42.07485 | 28.10377 | 21592 ft | 411 kts | 300° |
| 2026-02-17 10:36 | 42.09049 | 28.07209 | 21886 ft | 413 kts | 300° |
| 2026-02-17 10:36 | 42.10668 | 28.03947 | 22209 ft | 415 kts | 300° |
| 2026-02-17 10:36 | 42.12299 | 28.00721 | 22667 ft | 417 kts | 301° |
| 2026-02-17 10:37 | 42.13941 | 27.97496 | 23092 ft | 419 kts | 301° |
| 2026-02-17 10:37 | 42.15566 | 27.94277 | 23451 ft | 422 kts | 300° |
| 2026-02-17 10:37 | 42.17216 | 27.90994 | 23804 ft | 424 kts | 300° |
| 2026-02-17 10:37 | 42.18866 | 27.87698 | 24157 ft | 426 kts | 300° |
| 2026-02-17 10:38 | 42.20535 | 27.84371 | 24517 ft | 429 kts | 301° |
| 2026-02-17 10:38 | 42.22460 | 27.81271 | 24851 ft | 436 kts | 311° |
| 2026-02-17 10:38 | 42.24836 | 27.78681 | 25197 ft | 444 kts | 323° |
| 2026-02-17 10:39 | 42.30276 | 27.74639 | 25958 ft | 448 kts | 328° |
| 2026-02-17 10:39 | 42.33034 | 27.72655 | 26277 ft | 451 kts | 328° |
| 2026-02-17 10:39 | 42.35805 | 27.70646 | 26601 ft | 453 kts | 328° |
| 2026-02-17 10:39 | 42.38589 | 27.68618 | 26930 ft | 455 kts | 328° |
| 2026-02-17 10:40 | 42.41374 | 27.66576 | 27248 ft | 457 kts | 328° |
| 2026-02-17 10:40 | 42.44179 | 27.64514 | 27577 ft | 459 kts | 328° |
| 2026-02-17 10:40 | 42.46987 | 27.62450 | 27981 ft | 459 kts | 328° |
| 2026-02-17 10:40 | 42.49788 | 27.60390 | 28473 ft | 457 kts | 328° |
| 2026-02-17 10:41 | 42.52573 | 27.58338 | 28907 ft | 455 kts | 328° |
| 2026-02-17 10:41 | 42.55365 | 27.56278 | 29209 ft | 457 kts | 328° |
| 2026-02-17 10:41 | 42.58154 | 27.54192 | 29544 ft | 456 kts | 326° |
| 2026-02-17 10:41 | 42.60748 | 27.51835 | 29853 ft | 453 kts | 320° |
| 2026-02-17 10:42 | 42.63301 | 27.49332 | 30156 ft | 453 kts | 320° |
| 2026-02-17 10:42 | 42.65848 | 27.46819 | 30453 ft | 453 kts | 320° |
| 2026-02-17 10:42 | 42.68399 | 27.44307 | 30775 ft | 452 kts | 320° |
| 2026-02-17 10:43 | 42.73469 | 27.39312 | 31418 ft | 449 kts | 319° |
| 2026-02-17 10:43 | 42.76001 | 27.36818 | 31573 ft | 450 kts | 319° |
| 2026-02-17 10:43 | 42.81080 | 27.31804 | 31566 ft | 451 kts | 319° |
| 2026-02-17 10:44 | 42.86153 | 27.26777 | 31550 ft | 451 kts | 319° |
| 2026-02-17 10:44 | 42.91207 | 27.21716 | 31545 ft | 450 kts | 319° |
| 2026-02-17 10:45 | 42.96255 | 27.16665 | 31527 ft | 450 kts | 319° |
| 2026-02-17 10:45 | 43.01321 | 27.11645 | 31528 ft | 450 kts | 320° |
| 2026-02-17 10:46 | 43.06376 | 27.06592 | 31527 ft | 450 kts | 319° |
| 2026-02-17 10:47 | 43.14102 | 26.99267 | 31527 ft | 451 kts | 322° |
| 2026-02-17 10:47 | 43.19322 | 26.94584 | 31526 ft | 451 kts | 322° |
| 2026-02-17 10:48 | 43.24562 | 26.89828 | 31522 ft | 451 kts | 322° |
| 2026-02-17 10:48 | 43.29785 | 26.85061 | 31537 ft | 449 kts | 322° |
| 2026-02-17 10:49 | 43.35000 | 26.80311 | 31532 ft | 450 kts | 322° |
| 2026-02-17 10:49 | 43.40218 | 26.75544 | 31523 ft | 450 kts | 321° |
| 2026-02-17 10:50 | 43.45423 | 26.70758 | 31524 ft | 450 kts | 321° |
| 2026-02-17 10:50 | 43.50589 | 26.66006 | 31533 ft | 449 kts | 321° |
| 2026-02-17 10:51 | 43.58350 | 26.58782 | 31527 ft | 449 kts | 321° |
| 2026-02-17 10:51 | 43.63549 | 26.54005 | 31530 ft | 449 kts | 321° |
| 2026-02-17 10:52 | 43.68710 | 26.49223 | 31531 ft | 449 kts | 321° |
| 2026-02-17 10:52 | 43.73923 | 26.44446 | 31541 ft | 449 kts | 321° |
| 2026-02-17 10:53 | 43.79114 | 26.39630 | 31527 ft | 449 kts | 321° |
| 2026-02-17 10:53 | 43.84293 | 26.34806 | 31541 ft | 448 kts | 321° |
| 2026-02-17 10:54 | 43.89452 | 26.29947 | 31535 ft | 448 kts | 321° |
| 2026-02-17 10:55 | 43.97167 | 26.22686 | 31541 ft | 448 kts | 320° |
| 2026-02-17 10:55 | 44.01921 | 26.17204 | 31540 ft | 443 kts | 314° |
| 2026-02-17 10:56 | 44.06547 | 26.11528 | 31547 ft | 443 kts | 314° |
| 2026-02-17 10:56 | 44.11167 | 26.05827 | 31562 ft | 443 kts | 313° |
| 2026-02-17 10:57 | 44.15753 | 26.00138 | 31560 ft | 441 kts | 313° |
| 2026-02-17 10:57 | 44.20344 | 25.94443 | 31561 ft | 441 kts | 313° |
| 2026-02-17 10:58 | 44.24920 | 25.88744 | 31565 ft | 441 kts | 313° |
| 2026-02-17 10:58 | 44.29512 | 25.83047 | 31587 ft | 441 kts | 313° |
| 2026-02-17 10:59 | 44.36347 | 25.74525 | 31576 ft | 441 kts | 313° |
| 2026-02-17 10:59 | 44.40917 | 25.68792 | 31585 ft | 441 kts | 313° |
| 2026-02-17 11:00 | 44.45476 | 25.63060 | 31579 ft | 440 kts | 313° |
| 2026-02-17 11:00 | 44.50040 | 25.57340 | 31592 ft | 441 kts | 313° |
| 2026-02-17 11:01 | 44.54611 | 25.51592 | 31587 ft | 441 kts | 313° |
| 2026-02-17 11:01 | 44.59176 | 25.45829 | 31586 ft | 441 kts | 313° |
| 2026-02-17 11:02 | 44.63738 | 25.40055 | 31581 ft | 441 kts | 313° |
| 2026-02-17 11:03 | 44.70559 | 25.31396 | 31598 ft | 444 kts | 313° |
| 2026-02-17 11:03 | 44.75124 | 25.25600 | 31590 ft | 442 kts | 313° |
| 2026-02-17 11:04 | 44.79694 | 25.19809 | 31591 ft | 442 kts | 313° |
| 2026-02-17 11:04 | 44.84236 | 25.13987 | 31591 ft | 441 kts | 312° |
| 2026-02-17 11:05 | 44.88775 | 25.08140 | 31602 ft | 443 kts | 312° |
| 2026-02-17 11:05 | 44.93031 | 25.01919 | 31588 ft | 440 kts | 307° |
| 2026-02-17 11:06 | 44.97335 | 24.95823 | 31587 ft | 443 kts | 311° |
| 2026-02-17 11:06 | 45.02205 | 24.90386 | 31593 ft | 446 kts | 317° |
| 2026-02-17 11:07 | 45.09215 | 24.81790 | 31594 ft | 445 kts | 312° |
| 2026-02-17 11:07 | 45.13782 | 24.75858 | 31595 ft | 445 kts | 312° |
| 2026-02-17 11:08 | 45.18314 | 24.69957 | 31592 ft | 445 kts | 312° |
| 2026-02-17 11:08 | 45.22871 | 24.64016 | 31592 ft | 445 kts | 312° |
| 2026-02-17 11:09 | 45.27431 | 24.58056 | 31602 ft | 447 kts | 311° |
| 2026-02-17 11:09 | 45.32000 | 24.52072 | 31592 ft | 446 kts | 312° |
| 2026-02-17 11:10 | 45.36549 | 24.46101 | 31594 ft | 445 kts | 312° |
| 2026-02-17 11:11 | 45.43363 | 24.37126 | 31622 ft | 445 kts | 312° |
| 2026-02-17 11:11 | 45.47914 | 24.31115 | 31613 ft | 446 kts | 312° |
| 2026-02-17 11:12 | 45.52431 | 24.25136 | 31603 ft | 445 kts | 312° |
| 2026-02-17 11:12 | 45.56964 | 24.19120 | 31610 ft | 445 kts | 312° |
| 2026-02-17 11:13 | 45.61391 | 24.13231 | 31608 ft | 445 kts | 312° |
| 2026-02-17 11:13 | 45.65915 | 24.07201 | 31603 ft | 445 kts | 312° |
| 2026-02-17 11:14 | 45.70374 | 24.01241 | 31556 ft | 445 kts | 312° |
| 2026-02-17 11:14 | 45.74896 | 23.95184 | 31560 ft | 445 kts | 312° |
| 2026-02-17 11:15 | 45.81624 | 23.86145 | 31563 ft | 445 kts | 312° |
| 2026-02-17 11:15 | 45.86107 | 23.80105 | 31577 ft | 445 kts | 312° |
| 2026-02-17 11:16 | 45.90620 | 23.74004 | 31592 ft | 445 kts | 312° |
| 2026-02-17 11:16 | 45.95124 | 23.67905 | 31607 ft | 444 kts | 312° |
| 2026-02-17 11:17 | 45.99631 | 23.61799 | 31621 ft | 444 kts | 312° |
| 2026-02-17 11:17 | 46.04103 | 23.55721 | 31627 ft | 445 kts | 311° |
| 2026-02-17 11:18 | 46.08483 | 23.49748 | 31622 ft | 445 kts | 311° |
| 2026-02-17 11:19 | 46.15290 | 23.40628 | 31619 ft | 445 kts | 312° |
| 2026-02-17 11:19 | 46.19028 | 23.35524 | 31615 ft | 445 kts | 311° |
| 2026-02-17 11:20 | 46.23457 | 23.29280 | 31624 ft | 444 kts | 311° |
| 2026-02-17 11:20 | 46.27918 | 23.23090 | 31611 ft | 444 kts | 311° |
| 2026-02-17 11:21 | 46.32388 | 23.16919 | 31600 ft | 444 kts | 311° |
| 2026-02-17 11:21 | 46.36858 | 23.10735 | 31608 ft | 444 kts | 311° |
| 2026-02-17 11:22 | 46.41292 | 23.04491 | 31612 ft | 444 kts | 310° |
| 2026-02-17 11:22 | 46.45720 | 22.98223 | 31601 ft | 445 kts | 311° |
| 2026-02-17 11:23 | 46.52415 | 22.89044 | 31602 ft | 446 kts | 311° |
| 2026-02-17 11:23 | 46.56901 | 22.82825 | 31600 ft | 445 kts | 311° |
| 2026-02-17 11:24 | 46.61369 | 22.76565 | 31606 ft | 447 kts | 311° |
| 2026-02-17 11:24 | 46.65768 | 22.70385 | 31609 ft | 447 kts | 311° |
| 2026-02-17 11:25 | 46.70243 | 22.64088 | 31600 ft | 447 kts | 311° |
| 2026-02-17 11:25 | 46.74651 | 22.57907 | 31603 ft | 447 kts | 311° |
| 2026-02-17 11:26 | 46.79089 | 22.51630 | 31636 ft | 448 kts | 311° |
| 2026-02-17 11:27 | 46.85812 | 22.42067 | 31616 ft | 448 kts | 310° |
| 2026-02-17 11:27 | 46.90242 | 22.35639 | 31626 ft | 449 kts | 310° |
| 2026-02-17 11:28 | 46.94714 | 22.29257 | 31639 ft | 449 kts | 311° |
| 2026-02-17 11:28 | 46.99198 | 22.22883 | 31650 ft | 450 kts | 310° |
| 2026-02-17 11:29 | 47.03665 | 22.16447 | 31636 ft | 451 kts | 310° |
| 2026-02-17 11:29 | 47.08149 | 22.10010 | 31634 ft | 451 kts | 311° |
| 2026-02-17 11:30 | 47.12611 | 22.03626 | 31643 ft | 450 kts | 310° |
| 2026-02-17 11:30 | 47.17083 | 21.97183 | 31639 ft | 449 kts | 310° |
| 2026-02-17 11:31 | 47.23753 | 21.87541 | 31653 ft | 448 kts | 310° |
| 2026-02-17 11:31 | 47.28328 | 21.81275 | 31662 ft | 450 kts | 313° |
| 2026-02-17 11:32 | 47.32956 | 21.75075 | 31664 ft | 450 kts | 312° |
| 2026-02-17 11:32 | 47.37573 | 21.68850 | 31668 ft | 450 kts | 312° |
| 2026-02-17 11:33 | 47.42172 | 21.62617 | 31674 ft | 448 kts | 312° |
| 2026-02-17 11:33 | 47.46764 | 21.56386 | 31673 ft | 448 kts | 312° |
| 2026-02-17 11:34 | 47.51343 | 21.50165 | 31663 ft | 447 kts | 312° |
| 2026-02-17 11:35 | 47.58200 | 21.40813 | 31665 ft | 447 kts | 312° |
| 2026-02-17 11:35 | 47.62749 | 21.34594 | 31676 ft | 448 kts | 312° |
| 2026-02-17 11:36 | 47.67326 | 21.28308 | 31662 ft | 448 kts | 312° |
| 2026-02-17 11:36 | 47.71904 | 21.22005 | 31661 ft | 448 kts | 311° |
| 2026-02-17 11:37 | 47.76474 | 21.15693 | 31663 ft | 448 kts | 312° |
| 2026-02-17 11:37 | 47.81040 | 21.09382 | 31663 ft | 447 kts | 311° |
| 2026-02-17 11:38 | 47.85595 | 21.03063 | 31658 ft | 447 kts | 311° |
| 2026-02-17 11:38 | 47.90149 | 20.96741 | 31658 ft | 448 kts | 311° |
| 2026-02-17 11:39 | 47.96949 | 20.87275 | 31660 ft | 447 kts | 311° |
| 2026-02-17 11:39 | 48.01492 | 20.80925 | 31680 ft | 447 kts | 311° |
| 2026-02-17 11:40 | 48.06025 | 20.74552 | 31657 ft | 447 kts | 311° |
| 2026-02-17 11:40 | 48.10550 | 20.68186 | 31671 ft | 446 kts | 311° |
| 2026-02-17 11:41 | 48.15067 | 20.61820 | 31654 ft | 446 kts | 311° |
| 2026-02-17 11:41 | 48.19584 | 20.55448 | 31651 ft | 446 kts | 311° |
| 2026-02-17 11:42 | 48.24087 | 20.49062 | 31646 ft | 443 kts | 311° |
| 2026-02-17 11:43 | 48.30805 | 20.39506 | 31643 ft | 443 kts | 310° |
| 2026-02-17 11:43 | 48.34574 | 20.32442 | 31639 ft | 433 kts | 297° |
| 2026-02-17 11:44 | 48.37844 | 20.24839 | 31638 ft | 433 kts | 297° |
| 2026-02-17 11:44 | 48.41114 | 20.17235 | 31653 ft | 430 kts | 297° |
| 2026-02-17 11:45 | 48.44370 | 20.09687 | 31639 ft | 429 kts | 297° |
| 2026-02-17 11:45 | 48.47619 | 20.02129 | 31632 ft | 429 kts | 297° |
| 2026-02-17 11:46 | 48.50858 | 19.94572 | 31632 ft | 429 kts | 297° |
| 2026-02-17 11:46 | 48.54092 | 19.87000 | 31637 ft | 429 kts | 297° |
| 2026-02-17 11:47 | 48.58914 | 19.75699 | 31650 ft | 426 kts | 297° |
| 2026-02-17 11:47 | 48.62111 | 19.68164 | 31645 ft | 426 kts | 297° |
| 2026-02-17 11:48 | 48.65302 | 19.60618 | 31646 ft | 426 kts | 297° |
| 2026-02-17 11:48 | 48.68489 | 19.53073 | 31649 ft | 426 kts | 297° |
| 2026-02-17 11:49 | 48.71652 | 19.45558 | 31668 ft | 427 kts | 297° |
| 2026-02-17 11:49 | 48.74839 | 19.37969 | 31662 ft | 427 kts | 297° |
| 2026-02-17 11:50 | 48.78023 | 19.30372 | 31665 ft | 427 kts | 297° |
| 2026-02-17 11:51 | 48.82779 | 19.18977 | 31673 ft | 426 kts | 297° |
| 2026-02-17 11:51 | 48.85939 | 19.11368 | 31683 ft | 427 kts | 297° |
| 2026-02-17 11:52 | 48.89111 | 19.03714 | 31687 ft | 428 kts | 297° |
| 2026-02-17 11:52 | 48.92263 | 18.96088 | 31684 ft | 428 kts | 297° |
| 2026-02-17 11:53 | 48.95427 | 18.88414 | 31694 ft | 428 kts | 297° |
| 2026-02-17 11:53 | 48.98581 | 18.80740 | 31698 ft | 428 kts | 297° |
| 2026-02-17 11:54 | 49.01735 | 18.73046 | 31715 ft | 429 kts | 298° |
| 2026-02-17 11:54 | 49.04888 | 18.65330 | 31716 ft | 429 kts | 298° |
| 2026-02-17 11:55 | 49.09548 | 18.53874 | 31719 ft | 429 kts | 298° |
| 2026-02-17 11:55 | 49.12648 | 18.46240 | 31715 ft | 429 kts | 298° |
| 2026-02-17 11:56 | 49.15702 | 18.38679 | 31725 ft | 428 kts | 299° |
| 2026-02-17 11:56 | 49.18826 | 18.30934 | 31728 ft | 428 kts | 299° |
| 2026-02-17 11:57 | 49.21923 | 18.23241 | 31713 ft | 428 kts | 298° |
| 2026-02-17 11:57 | 49.25100 | 18.15530 | 31705 ft | 429 kts | 302° |
| 2026-02-17 11:58 | 49.28613 | 18.08139 | 31721 ft | 429 kts | 303° |
| 2026-02-17 11:59 | 49.33871 | 17.97080 | 31726 ft | 427 kts | 303° |
| 2026-02-17 11:59 | 49.37353 | 17.89707 | 31721 ft | 427 kts | 303° |
| 2026-02-17 12:00 | 49.40839 | 17.82328 | 31712 ft | 427 kts | 303° |
| 2026-02-17 12:00 | 49.44314 | 17.74934 | 31724 ft | 427 kts | 303° |
| 2026-02-17 12:01 | 49.47761 | 17.67586 | 31717 ft | 426 kts | 303° |
| 2026-02-17 12:01 | 49.51230 | 17.60183 | 31722 ft | 427 kts | 303° |
| 2026-02-17 12:02 | 49.54693 | 17.52762 | 31727 ft | 427 kts | 303° |
| 2026-02-17 12:02 | 49.58148 | 17.45321 | 31723 ft | 427 kts | 303° |
| 2026-02-17 12:03 | 49.63332 | 17.34142 | 31718 ft | 427 kts | 303° |
| 2026-02-17 12:03 | 49.66777 | 17.26692 | 31717 ft | 425 kts | 303° |
| 2026-02-17 12:04 | 49.70205 | 17.19247 | 31719 ft | 425 kts | 303° |
| 2026-02-17 12:04 | 49.73630 | 17.11795 | 31711 ft | 425 kts | 303° |
| 2026-02-17 12:05 | 49.77049 | 17.04334 | 31715 ft | 425 kts | 303° |
| 2026-02-17 12:05 | 49.80433 | 16.96900 | 31733 ft | 425 kts | 304° |
| 2026-02-17 12:06 | 49.83828 | 16.89451 | 31721 ft | 423 kts | 304° |
| 2026-02-17 12:07 | 49.88904 | 16.78273 | 31717 ft | 423 kts | 304° |
| 2026-02-17 12:07 | 49.92291 | 16.70799 | 31713 ft | 423 kts | 304° |
| 2026-02-17 12:08 | 49.95638 | 16.63377 | 31713 ft | 423 kts | 303° |
| 2026-02-17 12:08 | 49.98433 | 16.57163 | 31709 ft | 421 kts | 304° |
| 2026-02-17 12:09 | 50.01772 | 16.49709 | 31713 ft | 420 kts | 304° |
| 2026-02-17 12:09 | 50.05102 | 16.42238 | 31713 ft | 420 kts | 304° |
| 2026-02-17 12:10 | 50.08426 | 16.34737 | 31711 ft | 420 kts | 304° |
| 2026-02-17 12:10 | 50.11745 | 16.27238 | 31715 ft | 420 kts | 303° |
| 2026-02-17 12:11 | 50.16695 | 16.16006 | 31716 ft | 417 kts | 304° |
| 2026-02-17 12:11 | 50.21447 | 16.05161 | 31717 ft | 417 kts | 304° |
| 2026-02-17 12:12 | 50.28006 | 15.90151 | 31721 ft | 419 kts | 303° |
| 2026-02-17 12:12 | 50.34480 | 15.75228 | 31716 ft | 415 kts | 304° |
| 2026-02-17 12:13 | 50.40955 | 15.60227 | 31710 ft | 415 kts | 304° |
| 2026-02-17 12:13 | 50.47411 | 15.45190 | 31709 ft | 415 kts | 304° |
| 2026-02-17 12:14 | 50.53786 | 15.30242 | 31716 ft | 411 kts | 304° |
| 2026-02-17 12:15 | 50.63118 | 15.08225 | 31700 ft | 375 kts | 303° |
| 2026-02-17 12:15 | 50.65917 | 15.01582 | 31696 ft | 355 kts | 304° |
| 2026-02-17 12:15 | 50.68647 | 14.95090 | 31715 ft | 360 kts | 304° |
| 2026-02-17 12:15 | 50.71463 | 14.88379 | 31718 ft | 373 kts | 304° |
| 2026-02-17 12:16 | 50.73848 | 14.82674 | 31717 ft | 378 kts | 304° |
| 2026-02-17 12:16 | 50.76735 | 14.75741 | 31719 ft | 391 kts | 303° |
| 2026-02-17 12:17 | 50.79780 | 14.68420 | 31718 ft | 405 kts | 303° |
| 2026-02-17 12:17 | 50.82883 | 14.60949 | 31713 ft | 406 kts | 304° |
| 2026-02-17 12:18 | 50.85984 | 14.53466 | 31707 ft | 406 kts | 304° |
| 2026-02-17 12:18 | 50.89074 | 14.45980 | 31706 ft | 406 kts | 304° |
| 2026-02-17 12:19 | 50.95432 | 14.33191 | 31713 ft | 408 kts | 318° |
| 2026-02-17 12:19 | 50.99774 | 14.27282 | 31696 ft | 407 kts | 319° |
| 2026-02-17 12:19 | 51.08296 | 14.15591 | 31706 ft | 405 kts | 318° |
| 2026-02-17 12:20 | 51.16793 | 14.03816 | 31719 ft | 405 kts | 318° |
| 2026-02-17 12:20 | 51.25316 | 13.91946 | 31724 ft | 407 kts | 318° |
| 2026-02-17 12:21 | 51.33825 | 13.80027 | 31703 ft | 407 kts | 318° |
| 2026-02-17 12:21 | 51.42328 | 13.68043 | 31705 ft | 407 kts | 318° |
| 2026-02-17 12:22 | 51.48402 | 13.59484 | 31704 ft | 407 kts | 318° |
| 2026-02-17 12:23 | 51.54764 | 13.50478 | 31713 ft | 406 kts | 318° |
| 2026-02-17 12:23 | 51.58763 | 13.44779 | 31715 ft | 406 kts | 318° |
| 2026-02-17 12:24 | 51.62989 | 13.38757 | 31722 ft | 406 kts | 318° |
| 2026-02-17 12:24 | 51.67212 | 13.32719 | 31725 ft | 406 kts | 317° |
| 2026-02-17 12:25 | 51.71407 | 13.26702 | 31726 ft | 406 kts | 317° |
| 2026-02-17 12:25 | 51.75624 | 13.20645 | 31728 ft | 406 kts | 317° |
| 2026-02-17 12:26 | 51.79816 | 13.14595 | 31738 ft | 404 kts | 317° |
| 2026-02-17 12:26 | 51.84021 | 13.08520 | 31725 ft | 406 kts | 317° |
| 2026-02-17 12:27 | 51.90328 | 12.99361 | 31718 ft | 406 kts | 317° |
| 2026-02-17 12:27 | 51.94536 | 12.93250 | 31712 ft | 406 kts | 317° |
| 2026-02-17 12:28 | 51.98734 | 12.87131 | 31717 ft | 406 kts | 317° |
| 2026-02-17 12:28 | 52.02928 | 12.81005 | 31704 ft | 404 kts | 317° |
| 2026-02-17 12:29 | 52.07083 | 12.74912 | 31710 ft | 402 kts | 317° |
| 2026-02-17 12:29 | 52.11255 | 12.68778 | 31720 ft | 406 kts | 317° |
| 2026-02-17 12:30 | 52.15407 | 12.62650 | 31714 ft | 406 kts | 317° |
| 2026-02-17 12:31 | 52.21675 | 12.53382 | 31712 ft | 406 kts | 317° |
| 2026-02-17 12:31 | 52.25879 | 12.47144 | 31701 ft | 406 kts | 317° |
| 2026-02-17 12:32 | 52.30044 | 12.40958 | 31690 ft | 401 kts | 317° |
| 2026-02-17 12:32 | 52.34137 | 12.34854 | 31699 ft | 401 kts | 317° |
| 2026-02-17 12:33 | 52.38255 | 12.28685 | 31713 ft | 403 kts | 317° |
| 2026-02-17 12:33 | 52.42403 | 12.22475 | 31708 ft | 404 kts | 316° |
| 2026-02-17 12:33 | 52.44466 | 12.19371 | 31555 ft | 399 kts | 316° |
| 2026-02-17 12:34 | 52.46383 | 12.16488 | 31263 ft | 403 kts | 316° |
| 2026-02-17 12:34 | 52.48451 | 12.13384 | 30997 ft | 404 kts | 317° |
| 2026-02-17 12:34 | 52.50531 | 12.10269 | 30740 ft | 405 kts | 317° |
| 2026-02-17 12:35 | 52.54680 | 12.04014 | 30228 ft | 404 kts | 316° |
| 2026-02-17 12:35 | 52.56741 | 12.00914 | 29981 ft | 401 kts | 317° |
| 2026-02-17 12:35 | 52.58804 | 11.97825 | 29722 ft | 399 kts | 317° |
| 2026-02-17 12:35 | 52.60847 | 11.94751 | 29421 ft | 397 kts | 316° |
| 2026-02-17 12:36 | 52.62881 | 11.91676 | 29126 ft | 396 kts | 316° |
| 2026-02-17 12:36 | 52.64895 | 11.88614 | 28824 ft | 394 kts | 316° |
| 2026-02-17 12:36 | 52.66908 | 11.85561 | 28680 ft | 395 kts | 316° |
| 2026-02-17 12:36 | 52.68933 | 11.82496 | 28527 ft | 394 kts | 316° |
| 2026-02-17 12:37 | 52.70949 | 11.79432 | 28273 ft | 393 kts | 316° |
| 2026-02-17 12:37 | 52.72953 | 11.76385 | 27997 ft | 391 kts | 316° |
| 2026-02-17 12:37 | 52.74944 | 11.73353 | 27709 ft | 389 kts | 316° |
| 2026-02-17 12:37 | 52.76929 | 11.70322 | 27425 ft | 387 kts | 316° |
| 2026-02-17 12:38 | 52.78901 | 11.67302 | 27152 ft | 386 kts | 316° |
| 2026-02-17 12:38 | 52.80869 | 11.64294 | 26864 ft | 385 kts | 316° |
| 2026-02-17 12:38 | 52.82831 | 11.61292 | 26590 ft | 384 kts | 316° |
| 2026-02-17 12:39 | 52.86731 | 11.55311 | 26047 ft | 381 kts | 316° |
| 2026-02-17 12:39 | 52.88668 | 11.52330 | 25788 ft | 380 kts | 316° |
| 2026-02-17 12:39 | 52.90597 | 11.49347 | 25529 ft | 378 kts | 315° |
| 2026-02-17 12:39 | 52.92492 | 11.46421 | 25269 ft | 377 kts | 316° |
| 2026-02-17 12:40 | 52.94408 | 11.43455 | 25010 ft | 376 kts | 315° |
| 2026-02-17 12:40 | 52.96315 | 11.40495 | 24754 ft | 375 kts | 315° |
| 2026-02-17 12:40 | 52.98216 | 11.37544 | 24499 ft | 374 kts | 315° |
| 2026-02-17 12:40 | 53.00108 | 11.34605 | 24248 ft | 372 kts | 315° |
| 2026-02-17 12:41 | 53.01997 | 11.31667 | 23999 ft | 371 kts | 315° |
| 2026-02-17 12:41 | 53.03878 | 11.28731 | 23752 ft | 370 kts | 315° |
| 2026-02-17 12:41 | 53.05753 | 11.25804 | 23509 ft | 369 kts | 315° |
| 2026-02-17 12:41 | 53.07630 | 11.22878 | 23241 ft | 371 kts | 315° |
| 2026-02-17 12:42 | 53.09517 | 11.19942 | 22950 ft | 371 kts | 315° |
| 2026-02-17 12:42 | 53.11396 | 11.17025 | 22657 ft | 369 kts | 315° |
| 2026-02-17 12:42 | 53.13264 | 11.14114 | 22377 ft | 367 kts | 315° |
| 2026-02-17 12:43 | 53.16968 | 11.08316 | 21802 ft | 364 kts | 315° |
| 2026-02-17 12:43 | 53.18806 | 11.05432 | 21515 ft | 362 kts | 315° |
| 2026-02-17 12:43 | 53.20633 | 11.02556 | 21238 ft | 360 kts | 315° |
| 2026-02-17 12:43 | 53.22454 | 10.99693 | 20963 ft | 359 kts | 315° |
| 2026-02-17 12:44 | 53.24266 | 10.96844 | 20712 ft | 357 kts | 315° |
| 2026-02-17 12:44 | 53.26064 | 10.94008 | 20438 ft | 355 kts | 315° |
| 2026-02-17 12:44 | 53.27852 | 10.91190 | 20149 ft | 353 kts | 315° |
| 2026-02-17 12:44 | 53.29636 | 10.88378 | 19909 ft | 351 kts | 315° |
| 2026-02-17 12:45 | 53.31410 | 10.85582 | 19644 ft | 350 kts | 315° |
| 2026-02-17 12:45 | 53.33146 | 10.82846 | 19380 ft | 351 kts | 314° |
| 2026-02-17 12:45 | 53.34922 | 10.80035 | 19130 ft | 354 kts | 314° |
| 2026-02-17 12:45 | 53.36733 | 10.77145 | 18867 ft | 353 kts | 314° |
| 2026-02-17 12:46 | 53.38514 | 10.74308 | 18616 ft | 352 kts | 314° |
| 2026-02-17 12:46 | 53.40283 | 10.71493 | 18362 ft | 351 kts | 314° |
| 2026-02-17 12:46 | 53.42049 | 10.68682 | 18055 ft | 347 kts | 314° |
| 2026-02-17 12:47 | 53.45487 | 10.63196 | 16753 ft | 341 kts | 314° |
| 2026-02-17 12:47 | 53.47196 | 10.60461 | 16175 ft | 338 kts | 314° |
| 2026-02-17 12:47 | 53.48890 | 10.57748 | 15629 ft | 335 kts | 314° |
| 2026-02-17 12:47 | 53.50570 | 10.55055 | 15089 ft | 332 kts | 314° |
| 2026-02-17 12:48 | 53.52234 | 10.52385 | 14558 ft | 329 kts | 314° |
| 2026-02-17 12:48 | 53.53885 | 10.49731 | 14083 ft | 326 kts | 314° |
| 2026-02-17 12:48 | 53.55504 | 10.47125 | 13755 ft | 324 kts | 314° |
| 2026-02-17 12:48 | 53.57135 | 10.44497 | 13478 ft | 323 kts | 314° |
| 2026-02-17 12:49 | 53.58753 | 10.41888 | 13186 ft | 321 kts | 314° |
| 2026-02-17 12:49 | 53.60366 | 10.39282 | 12913 ft | 322 kts | 314° |
| 2026-02-17 12:49 | 53.61980 | 10.36675 | 12637 ft | 321 kts | 314° |
| 2026-02-17 12:49 | 53.63586 | 10.34079 | 12362 ft | 319 kts | 314° |
| 2026-02-17 12:50 | 53.65170 | 10.31522 | 11864 ft | 314 kts | 314° |
| 2026-02-17 12:50 | 53.66746 | 10.28981 | 11294 ft | 312 kts | 314° |
| 2026-02-17 12:50 | 53.68306 | 10.26453 | 10748 ft | 310 kts | 314° |
| 2026-02-17 12:51 | 53.71348 | 10.21491 | 10016 ft | 294 kts | 314° |
| 2026-02-17 12:51 | 53.72788 | 10.19136 | 9826 ft | 282 kts | 314° |
| 2026-02-17 12:51 | 53.74165 | 10.16884 | 9632 ft | 270 kts | 314° |
| 2026-02-17 12:51 | 53.75396 | 10.14870 | 9299 ft | 265 kts | 314° |
| 2026-02-17 12:52 | 53.76706 | 10.12725 | 8867 ft | 263 kts | 314° |
| 2026-02-17 12:52 | 53.78017 | 10.10579 | 8427 ft | 261 kts | 314° |
| 2026-02-17 12:52 | 53.79318 | 10.08446 | 7982 ft | 259 kts | 314° |
| 2026-02-17 12:52 | 53.80587 | 10.06367 | 7558 ft | 257 kts | 314° |
| 2026-02-17 12:53 | 53.81866 | 10.04269 | 7138 ft | 255 kts | 314° |
| 2026-02-17 12:53 | 53.83136 | 10.02185 | 6751 ft | 253 kts | 314° |
| 2026-02-17 12:53 | 53.84396 | 10.00119 | 6349 ft | 251 kts | 314° |
| 2026-02-17 12:53 | 53.85646 | 9.98070 | 5943 ft | 249 kts | 314° |
| 2026-02-17 12:54 | 53.86860 | 9.95979 | 5471 ft | 248 kts | 305° |
| 2026-02-17 12:54 | 53.87545 | 9.93346 | 4992 ft | 247 kts | 279° |
| 2026-02-17 12:54 | 53.87548 | 9.90424 | 4476 ft | 250 kts | 266° |
| 2026-02-17 12:55 | 53.87123 | 9.84482 | 3262 ft | 255 kts | 264° |
| 2026-02-17 12:55 | 53.86969 | 9.82516 | 2820 ft | 253 kts | 264° |
| 2026-02-17 12:55 | 53.86426 | 9.79721 | 2244 ft | 252 kts | 236° |
| 2026-02-17 12:55 | 53.85067 | 9.77937 | 1961 ft | 252 kts | 200° |
| 2026-02-17 12:56 | 53.83309 | 9.77892 | 1749 ft | 260 kts | 165° |
| 2026-02-17 12:56 | 53.81775 | 9.79528 | 1227 ft | 261 kts | 134° |
| 2026-02-17 12:56 | 53.80536 | 9.81777 | 1180 ft | 261 kts | 133° |
| 2026-02-17 12:56 | 53.79263 | 9.84004 | 1647 ft | 267 kts | 138° |
| 2026-02-17 12:57 | 53.77917 | 9.86206 | 1770 ft | 270 kts | 134° |
| 2026-02-17 12:57 | 53.76708 | 9.88486 | 1720 ft | 251 kts | 131° |
| 2026-02-17 12:57 | 53.75417 | 9.90232 | 1688 ft | 224 kts | 160° |
| 2026-02-17 12:57 | 53.73992 | 9.90751 | 1515 ft | 201 kts | 175° |
| 2026-02-17 12:58 | 53.72750 | 9.91077 | 1623 ft | 165 kts | 174° |
| 2026-02-17 12:58 | 53.71700 | 9.91544 | 1453 ft | 149 kts | 161° |
| 2026-02-17 12:58 | 53.70850 | 9.92327 | 1254 ft | 133 kts | 145° |
| 2026-02-17 12:59 | 53.69273 | 9.94316 | 994 ft | 143 kts | 153° |
| 2026-02-17 12:59 | 53.68394 | 9.95029 | 833 ft | 138 kts | 157° |
| 2026-02-17 12:59 | 53.67535 | 9.95690 | 623 ft | 133 kts | 154° |
| 2026-02-17 12:59 | 53.66724 | 9.96398 | 408 ft | 131 kts | 152° |
| 2026-02-17 13:00 | 53.65921 | 9.97109 | 213 ft | 130 kts | 153° |
| 2026-02-17 13:00 | 53.65118 | 9.97804 | 68 ft | 128 kts | 153° |
| 2026-02-17 13:00 | 53.64409 | 9.98413 | 55 ft | 97 kts | 153° |
| 2026-02-17 13:00 | 53.63945 | 9.98818 | 56 ft | 53 kts | 153° |
| 2026-02-17 13:01 | 53.63642 | 9.99077 | 51 ft | 44 kts | 153° |
| 2026-02-17 13:01 | 53.63420 | 9.99269 | 51 ft | 28 kts | 153° |
| 2026-02-17 13:01 | 53.63325 | 9.99367 | 52 ft | 10 kts | 123° |
| 2026-02-17 13:01 | 53.63296 | 9.99488 | 49 ft | 12 kts | 107° |
| 2026-02-17 13:02 | 53.63288 | 9.99561 | 53 ft | 4 kts | 98° |
| 2026-02-17 13:02 | 53.63287 | 9.99575 | 53 ft | 0 kts | 98° |
| 2026-02-17 13:03 | 53.63285 | 9.99592 | 53 ft | 4 kts | 98° |
| 2026-02-17 13:03 | 53.63277 | 9.99663 | 54 ft | 8 kts | 94° |
| 2026-02-17 13:03 | 53.63300 | 9.99748 | 54 ft | 10 kts | 54° |
| 2026-02-17 13:03 | 53.63346 | 9.99848 | 54 ft | 12 kts | 50° |
| 2026-02-17 13:04 | 53.63397 | 9.99969 | 54 ft | 14 kts | 70° |
| 2026-02-17 13:04 | 53.63450 | 10.00109 | 54 ft | 12 kts | 50° |
| 2026-02-17 13:04 | 53.63455 | 10.00118 | 54 ft | 0 kts | 50° |
| 2026-02-17 13:04 | 53.63447 | 10.00143 | 54 ft | 6 kts | 154° |
| 2026-02-17 13:05 | 53.63409 | 10.00208 | 54 ft | 10 kts | 104° |
| 2026-02-17 13:05 | 53.63412 | 10.00300 | 54 ft | 8 kts | 86° |
| 2026-02-17 13:05 | 53.63414 | 10.00352 | 54 ft | 0 kts | 86° |